Wednesday, November 14, 2018, 9:56 PM EST
Back to Local

KMDT, Harrisburg International Airport

Location: Middletown, PA, United States Lat: 40.2
Local Time: 9:56 PM EST ( 2:56 GMT) Lon: -76.767
Time Zone: US/Eastern Elev: 308 ft

Show me the last for .
Show Coded

Time T Td Feel RH Dir Speed Gust Alt SLP Vis Weather Sky Remarks
2018-11-14 20:56 35 21 - 56 - Calm - 30.54 30.55 10 FEW100 OVC160 None
2018-11-14 19:56 36 19 - 49 - Calm - 30.52 30.53 10 FEW100 OVC160 None
2018-11-14 18:56 36 17 33 45 10° 3 - 30.50 30.51 10 FEW100 OVC160 6-hr Min Temp (7pm): 36.0°F
6-hr Max Temp (7pm): 42.1°F
2018-11-14 17:56 37 16 32 41 10° 6 - 30.49 30.50 10 FEW100 OVC160 None
2018-11-14 16:56 38 17 32 42 360° 8 - 30.49 30.50 10 SCT100 OVC200 None
2018-11-14 15:56 39 17 33 40 360° 9 - 30.48 30.49 10 SCT100 OVC200 None
2018-11-14 14:56 41 18 35 38 350° 9 - 30.47 30.47 10 SCT100 BKN250 None
2018-11-14 13:56 41 17 31 37 330° 13 25 30.45 30.46 10 SCT100 BKN250 None
2018-11-14 12:56 41 18 34 38 310° 12 - 30.45 30.46 10 SCT100 BKN250 6-hr Min Temp (1pm): 36.0°F
6-hr Max Temp (1pm): 42.1°F
2018-11-14 11:56 40 18 32 40 300° 15 - 30.45 30.45 10 SCT050 None
2018-11-14 10:56 40 22 30 48 290° 12 21 30.45 30.46 10 SCT048 None
2018-11-14 09:56 38 22 31 52 320° 9 - 30.45 30.46 10 SCT046 None
2018-11-14 08:56 37 21 29 51 290° 13 - 30.43 30.44 10 BKN042 None
2018-11-14 07:56 36 22 27 56 300° 14 - 30.40 30.41 10 BKN044 None
2018-11-14 06:56 37 22 29 53 290° 12 - 30.37 30.38 10 OVC043 24-hr Precip Total (7am): 0.02"
6-hr Min Temp (7am): 37.0°F
6-hr Max Temp (7am): 39.0°F
2018-11-14 05:56 37 23 30 56 280° 9 - 30.35 30.36 10 OVC044 None
2018-11-14 04:56 37 23 30 56 300° 10 - 30.32 30.33 10 BKN046 OVC250 None
2018-11-14 03:56 37 22 28 53 300° 14 - 30.29 30.29 10 FEW050 OVC250 None
2018-11-14 02:56 38 23 30 54 300° 13 - 30.27 30.28 10 FEW049 OVC250 None
2018-11-14 01:56 38 22 29 52 310° 15 - 30.27 30.27 10 FEW050 OVC240 None
2018-11-13 23:56 39 20 30 45 310° 16 - 30.24 30.24 10 OVC230 Peak wind: 31 mph (27 kts) from 310° at 24 min
24-hr Min Temp (12am): 39.0°F
24-hr Max Temp (12am): 45.0°F
2018-11-13 22:56 40 23 28 50 310° 23 31 30.23 30.23 10 FEW050 OVC230 Peak wind: 35 mph (31 kts) from 310° at 06 min

Support USWX by starting your Amazon purchase here.